sensor_id;sensor_type;location;lat;lon;timestamp;pressure;altitude;pressure_sealevel;temperature;humidity
77247;BME280;66279;42.820;23.374;2023-12-20T00:15:24;96114.06;;;8.42;47.14
77247;BME280;66279;42.820;23.374;2023-12-20T00:31:04;96079.28;;;7.94;49.12
77247;BME280;66279;42.820;23.374;2023-12-20T00:33:29;96087.44;;;7.84;48.41
77247;BME280;66279;42.820;23.374;2023-12-20T00:35:55;96083.53;;;7.80;48.90
77247;BME280;66279;42.820;23.374;2023-12-20T00:38:20;96062.63;;;7.94;49.89
77247;BME280;66279;42.820;23.374;2023-12-20T00:40:45;96078.91;;;7.30;52.09
77247;BME280;66279;42.820;23.374;2023-12-20T00:43:11;96066.53;;;6.84;54.38
77247;BME280;66279;42.820;23.374;2023-12-20T00:45:37;96075.72;;;6.88;55.50
77247;BME280;66279;42.820;23.374;2023-12-20T00:48:02;96045.59;;;7.14;53.10
77247;BME280;66279;42.820;23.374;2023-12-20T00:50:28;96044.84;;;7.05;52.42
77247;BME280;66279;42.820;23.374;2023-12-20T00:52:54;96084.22;;;7.22;51.88
77247;BME280;66279;42.820;23.374;2023-12-20T00:55:19;96072.75;;;7.14;51.27
77247;BME280;66279;42.820;23.374;2023-12-20T00:57:45;96082.03;;;7.25;50.76
77247;BME280;66279;42.820;23.374;2023-12-20T01:00:10;96077.94;;;7.23;50.23
77247;BME280;66279;42.820;23.374;2023-12-20T01:02:36;96063.22;;;6.90;53.17
77247;BME280;66279;42.820;23.374;2023-12-20T01:05:01;96054.88;;;6.79;54.30
77247;BME280;66279;42.820;23.374;2023-12-20T01:07:28;96007.22;;;6.19;56.12
77247;BME280;66279;42.820;23.374;2023-12-20T01:09:53;96048.06;;;6.30;57.22
77247;BME280;66279;42.820;23.374;2023-12-20T01:12:18;96025.75;;;6.80;55.04
77247;BME280;66279;42.820;23.374;2023-12-20T01:14:45;96031.66;;;6.82;53.19
77247;BME280;66279;42.820;23.374;2023-12-20T01:17:12;96047.66;;;6.81;52.70
77247;BME280;66279;42.820;23.374;2023-12-20T01:19:37;96051.03;;;6.89;52.02
77247;BME280;66279;42.820;23.374;2023-12-20T01:22:02;96042.50;;;6.87;51.76
77247;BME280;66279;42.820;23.374;2023-12-20T01:24:28;96037.66;;;6.99;53.06
77247;BME280;66279;42.820;23.374;2023-12-20T01:26:54;96037.97;;;6.73;55.24
77247;BME280;66279;42.820;23.374;2023-12-20T01:29:19;96032.28;;;6.30;57.48
77247;BME280;66279;42.820;23.374;2023-12-20T01:31:44;96032.34;;;6.22;58.44
77247;BME280;66279;42.820;23.374;2023-12-20T01:34:10;96013.31;;;6.12;59.07
77247;BME280;66279;42.820;23.374;2023-12-20T01:36:35;96012.75;;;6.56;56.88
77247;BME280;66279;42.820;23.374;2023-12-20T01:39:01;96017.13;;;6.72;54.18
77247;BME280;66279;42.820;23.374;2023-12-20T01:41:26;96018.63;;;6.89;53.23
77247;BME280;66279;42.820;23.374;2023-12-20T01:43:51;96010.44;;;6.84;53.05
77247;BME280;66279;42.820;23.374;2023-12-20T01:46:19;95995.47;;;6.84;52.26
77247;BME280;66279;42.820;23.374;2023-12-20T01:48:45;96006.16;;;6.83;51.92
77247;BME280;66279;42.820;23.374;2023-12-20T01:51:10;95986.94;;;6.59;54.16
77247;BME280;66279;42.820;23.374;2023-12-20T01:53:36;95983.56;;;6.42;55.97
77247;BME280;66279;42.820;23.374;2023-12-20T01:56:02;95999.88;;;6.38;57.18
77247;BME280;66279;42.820;23.374;2023-12-20T01:58:28;95925.94;;;5.70;58.69
77247;BME280;66279;42.820;23.374;2023-12-20T02:00:54;95990.50;;;6.43;56.94
77247;BME280;66279;42.820;23.374;2023-12-20T02:03:20;95977.38;;;6.58;55.09
77247;BME280;66279;42.820;23.374;2023-12-20T02:05:46;95965.78;;;6.53;54.01
77247;BME280;66279;42.820;23.374;2023-12-20T02:08:13;95980.84;;;6.82;52.83
77247;BME280;66279;42.820;23.374;2023-12-20T02:10:38;95986.13;;;6.82;52.35
77247;BME280;66279;42.820;23.374;2023-12-20T02:13:05;95974.22;;;6.86;52.32
77247;BME280;66279;42.820;23.374;2023-12-20T02:15:31;95976.28;;;6.76;53.74
77247;BME280;66279;42.820;23.374;2023-12-20T02:17:56;95962.75;;;6.33;56.04
77247;BME280;66279;42.820;23.374;2023-12-20T02:20:22;95970.31;;;6.36;56.41
77247;BME280;66279;42.820;23.374;2023-12-20T02:22:47;95969.03;;;6.32;57.29
77247;BME280;66279;42.820;23.374;2023-12-20T02:25:13;95957.81;;;6.38;56.30
77247;BME280;66279;42.820;23.374;2023-12-20T02:27:38;95971.38;;;6.73;54.74
77247;BME280;66279;42.820;23.374;2023-12-20T02:30:05;95959.56;;;6.68;53.82
77247;BME280;66279;42.820;23.374;2023-12-20T02:32:31;95950.84;;;6.68;53.11
77247;BME280;66279;42.820;23.374;2023-12-20T02:34:56;95941.00;;;6.62;52.32
77247;BME280;66279;42.820;23.374;2023-12-20T02:37:21;95926.78;;;6.56;52.04
77247;BME280;66279;42.820;23.374;2023-12-20T02:39:47;95940.56;;;6.58;53.17
77247;BME280;66279;42.820;23.374;2023-12-20T02:42:12;95959.19;;;6.26;56.04
77247;BME280;66279;42.820;23.374;2023-12-20T02:44:38;95963.16;;;6.21;56.93
77247;BME280;66279;42.820;23.374;2023-12-20T02:47:04;95949.75;;;6.08;58.05
77247;BME280;66279;42.820;23.374;2023-12-20T02:49:29;95940.13;;;6.23;57.35
77247;BME280;66279;42.820;23.374;2023-12-20T02:51:55;95945.34;;;6.55;55.26
77247;BME280;66279;42.820;23.374;2023-12-20T02:54:20;95945.66;;;6.60;53.94
77247;BME280;66279;42.820;23.374;2023-12-20T02:56:46;95929.31;;;6.50;53.48
77247;BME280;66279;42.820;23.374;2023-12-20T02:59:12;95929.69;;;6.61;52.53
77247;BME280;66279;42.820;23.374;2023-12-20T03:01:45;95894.75;;;6.30;52.98
77247;BME280;66279;42.820;23.374;2023-12-20T03:04:12;95930.28;;;6.49;52.48
77247;BME280;66279;42.820;23.374;2023-12-20T03:06:38;95929.97;;;6.20;55.54
77247;BME280;66279;42.820;23.374;2023-12-20T03:09:03;95931.19;;;6.10;56.57
77247;BME280;66279;42.820;23.374;2023-12-20T03:11:29;95945.97;;;6.11;58.64
77247;BME280;66279;42.820;23.374;2023-12-20T03:13:55;95935.13;;;6.06;58.08
77247;BME280;66279;42.820;23.374;2023-12-20T03:16:21;95941.38;;;6.36;55.91
77247;BME280;66279;42.820;23.374;2023-12-20T03:18:46;95928.88;;;6.38;54.60
77247;BME280;66279;42.820;23.374;2023-12-20T03:21:12;95931.78;;;6.43;53.93
77247;BME280;66279;42.820;23.374;2023-12-20T03:23:37;95930.47;;;6.47;53.30
77247;BME280;66279;42.820;23.374;2023-12-20T03:26:03;95934.94;;;6.38;53.15
77247;BME280;66279;42.820;23.374;2023-12-20T03:28:29;95942.16;;;6.44;52.48
77247;BME280;66279;42.820;23.374;2023-12-20T03:30:54;95910.06;;;5.95;56.19
77247;BME280;66279;42.820;23.374;2023-12-20T03:33:20;95936.25;;;6.11;56.72
77247;BME280;66279;42.820;23.374;2023-12-20T03:35:45;95929.75;;;5.91;58.43
77247;BME280;66279;42.820;23.374;2023-12-20T03:38:10;95928.91;;;6.07;58.42
77247;BME280;66279;42.820;23.374;2023-12-20T03:40:36;95905.13;;;6.23;56.00
77247;BME280;66279;42.820;23.374;2023-12-20T03:43:01;95907.19;;;6.36;54.79
77247;BME280;66279;42.820;23.374;2023-12-20T03:45:27;95916.41;;;6.55;53.22
77247;BME280;66279;42.820;23.374;2023-12-20T03:47:52;95898.09;;;6.47;52.37
77247;BME280;66279;42.820;23.374;2023-12-20T03:50:25;95907.50;;;6.41;52.02
77247;BME280;66279;42.820;23.374;2023-12-20T03:52:51;95914.94;;;6.52;52.15
77247;BME280;66279;42.820;23.374;2023-12-20T03:55:16;95908.78;;;6.22;55.22
77247;BME280;66279;42.820;23.374;2023-12-20T03:57:42;95908.06;;;5.97;56.58
77247;BME280;66279;42.820;23.374;2023-12-20T04:00:08;95895.88;;;5.73;58.49
77247;BME280;66279;42.820;23.374;2023-12-20T04:02:39;95892.41;;;5.72;59.36
77247;BME280;66279;42.820;23.374;2023-12-20T04:05:05;95910.16;;;6.10;56.52
77247;BME280;66279;42.820;23.374;2023-12-20T04:07:31;95891.09;;;6.31;54.47
77247;BME280;66279;42.820;23.374;2023-12-20T04:09:57;95895.50;;;6.38;53.51
77247;BME280;66279;42.820;23.374;2023-12-20T04:12:22;95890.75;;;6.34;53.23
77247;BME280;66279;42.820;23.374;2023-12-20T04:14:48;95883.56;;;6.28;52.60
77247;BME280;66279;42.820;23.374;2023-12-20T04:17:14;95891.75;;;6.33;52.97
77247;BME280;66279;42.820;23.374;2023-12-20T04:19:41;95893.34;;;6.19;55.33
77247;BME280;66279;42.820;23.374;2023-12-20T04:22:07;95884.16;;;6.15;56.15
77247;BME280;66279;42.820;23.374;2023-12-20T04:24:32;95887.25;;;5.87;58.20
77247;BME280;66279;42.820;23.374;2023-12-20T04:26:57;95867.34;;;5.62;58.91
77247;BME280;66279;42.820;23.374;2023-12-20T04:29:23;95884.69;;;6.10;56.76
77247;BME280;66279;42.820;23.374;2023-12-20T04:31:48;95875.69;;;6.28;55.15
77247;BME280;66279;42.820;23.374;2023-12-20T04:34:16;95875.03;;;6.49;53.33
77247;BME280;66279;42.820;23.374;2023-12-20T04:36:41;95860.50;;;6.38;52.69
77247;BME280;66279;42.820;23.374;2023-12-20T04:39:07;95871.47;;;6.41;52.81
77247;BME280;66279;42.820;23.374;2023-12-20T04:41:32;95874.63;;;6.37;52.74
77247;BME280;66279;42.820;23.374;2023-12-20T04:43:58;95871.63;;;6.25;54.78
77247;BME280;66279;42.820;23.374;2023-12-20T04:46:23;95884.16;;;6.15;56.02
77247;BME280;66279;42.820;23.374;2023-12-20T04:48:49;95858.09;;;5.74;58.02
77247;BME280;66279;42.820;23.374;2023-12-20T04:51:14;95873.84;;;5.74;59.20
77247;BME280;66279;42.820;23.374;2023-12-20T04:53:40;95857.66;;;5.93;56.94
77247;BME280;66279;42.820;23.374;2023-12-20T04:56:05;95834.44;;;6.05;54.79
77247;BME280;66279;42.820;23.374;2023-12-20T04:58:31;95860.75;;;6.28;53.58
77247;BME280;66279;42.820;23.374;2023-12-20T05:00:56;95875.84;;;6.49;52.74
77247;BME280;66279;42.820;23.374;2023-12-20T05:03:22;95873.75;;;6.44;52.67
77247;BME280;66279;42.820;23.374;2023-12-20T05:05:47;95871.25;;;6.28;52.41
77247;BME280;66279;42.820;23.374;2023-12-20T05:08:13;95849.75;;;6.02;54.61
77247;BME280;66279;42.820;23.374;2023-12-20T05:10:38;95868.19;;;5.93;56.56
77247;BME280;66279;42.820;23.374;2023-12-20T05:13:05;95849.09;;;5.68;58.49
77247;BME280;66279;42.820;23.374;2023-12-20T05:15:31;95855.91;;;5.54;59.81
77247;BME280;66279;42.820;23.374;2023-12-20T05:17:56;95856.84;;;5.93;57.38
77247;BME280;66279;42.820;23.374;2023-12-20T05:20:21;95829.41;;;6.18;55.27
77247;BME280;66279;42.820;23.374;2023-12-20T05:22:48;95848.09;;;6.47;53.46
77247;BME280;66279;42.820;23.374;2023-12-20T05:25:13;95839.56;;;6.44;53.18
77247;BME280;66279;42.820;23.374;2023-12-20T05:27:38;95849.09;;;6.45;52.66
77247;BME280;66279;42.820;23.374;2023-12-20T05:30:04;95848.50;;;6.35;52.34
77247;BME280;66279;42.820;23.374;2023-12-20T05:32:30;95839.56;;;5.98;54.63
77247;BME280;66279;42.820;23.374;2023-12-20T05:34:56;95841.03;;;6.01;56.23
77247;BME280;66279;42.820;23.374;2023-12-20T05:37:22;95837.66;;;5.84;57.42
77247;BME280;66279;42.820;23.374;2023-12-20T05:39:47;95841.72;;;5.64;59.21
77247;BME280;66279;42.820;23.374;2023-12-20T05:42:12;95810.44;;;5.77;57.44
77247;BME280;66279;42.820;23.374;2023-12-20T05:44:38;95820.69;;;6.18;55.19
77247;BME280;66279;42.820;23.374;2023-12-20T05:47:03;95825.00;;;6.34;54.20
77247;BME280;66279;42.820;23.374;2023-12-20T05:49:29;95815.03;;;6.29;53.37
77247;BME280;66279;42.820;23.374;2023-12-20T05:51:54;95811.84;;;6.34;52.74
77247;BME280;66279;42.820;23.374;2023-12-20T05:54:19;95797.03;;;6.18;52.61
77247;BME280;66279;42.820;23.374;2023-12-20T05:56:45;95816.44;;;6.17;54.66
77247;BME280;66279;42.820;23.374;2023-12-20T05:59:10;95833.41;;;5.52;60.47
77247;BME280;66279;42.820;23.374;2023-12-20T06:01:36;95819.25;;;5.61;61.55
77247;BME280;66279;42.820;23.374;2023-12-20T06:04:01;95804.31;;;5.62;60.95
77247;BME280;66279;42.820;23.374;2023-12-20T06:06:28;95816.44;;;6.17;58.19
77247;BME280;66279;42.820;23.374;2023-12-20T06:08:54;95810.78;;;6.43;55.65
77247;BME280;66279;42.820;23.374;2023-12-20T06:11:19;95806.75;;;5.63;52.71
77247;BME280;66279;42.820;23.374;2023-12-20T06:13:44;95806.53;;;5.73;52.48
77247;BME280;66279;42.820;23.374;2023-12-20T06:16:10;95819.91;;;5.94;52.10
77247;BME280;66279;42.820;23.374;2023-12-20T06:18:35;95789.91;;;5.81;51.70
77247;BME280;66279;42.820;23.374;2023-12-20T06:21:02;95791.66;;;5.57;52.30
77247;BME280;66279;42.820;23.374;2023-12-20T06:23:27;95783.28;;;5.93;53.84
77247;BME280;66279;42.820;23.374;2023-12-20T06:25:53;95802.38;;;6.10;54.65
77247;BME280;66279;42.820;23.374;2023-12-20T06:28:18;95811.84;;;5.96;55.98
77247;BME280;66279;42.820;23.374;2023-12-20T06:30:44;95810.69;;;5.67;56.92
77247;BME280;66279;42.820;23.374;2023-12-20T06:33:11;95799.13;;;5.76;54.53
77247;BME280;66279;42.820;23.374;2023-12-20T06:35:36;95821.56;;;5.17;50.35
77247;BME280;66279;42.820;23.374;2023-12-20T06:38:02;95802.16;;;5.34;51.88
77247;BME280;66279;42.820;23.374;2023-12-20T06:40:27;95804.97;;;5.64;49.92
77247;BME280;66279;42.820;23.374;2023-12-20T06:42:53;95794.03;;;5.75;50.41
77247;BME280;66279;42.820;23.374;2023-12-20T06:45:18;95805.53;;;6.05;50.15
77247;BME280;66279;42.820;23.374;2023-12-20T06:47:44;95817.94;;;5.88;53.53
77247;BME280;66279;42.820;23.374;2023-12-20T06:50:09;95794.28;;;5.57;55.79
77247;BME280;66279;42.820;23.374;2023-12-20T06:52:35;95788.91;;;5.19;57.83
77247;BME280;66279;42.820;23.374;2023-12-20T06:55:01;95812.38;;;5.21;59.25
77247;BME280;66279;42.820;23.374;2023-12-20T06:57:26;95813.72;;;5.79;55.89
77247;BME280;66279;42.820;23.374;2023-12-20T06:59:52;95798.44;;;6.06;53.73
77247;BME280;66279;42.820;23.374;2023-12-20T07:02:18;95793.38;;;6.04;53.09
77247;BME280;66279;42.820;23.374;2023-12-20T07:04:43;95797.34;;;6.00;52.55
77247;BME280;66279;42.820;23.374;2023-12-20T07:07:09;95781.16;;;5.88;53.14
77247;BME280;66279;42.820;23.374;2023-12-20T07:09:34;95778.34;;;5.90;52.88
77247;BME280;66279;42.820;23.374;2023-12-20T07:11:59;95798.44;;;5.83;56.33
77247;BME280;66279;42.820;23.374;2023-12-20T07:14:25;95782.72;;;5.74;57.84
77247;BME280;66279;42.820;23.374;2023-12-20T07:16:51;95758.78;;;5.38;58.92
77247;BME280;66279;42.820;23.374;2023-12-20T07:19:16;95786.84;;;5.46;59.20
77247;BME280;66279;42.820;23.374;2023-12-20T07:21:42;95742.63;;;5.58;56.31
77247;BME280;66279;42.820;23.374;2023-12-20T07:24:07;95757.97;;;5.92;54.98
77247;BME280;66279;42.820;23.374;2023-12-20T07:26:33;95760.91;;;5.97;54.37
77247;BME280;66279;42.820;23.374;2023-12-20T07:28:59;95780.69;;;6.08;53.95
77247;BME280;66279;42.820;23.374;2023-12-20T07:31:24;95761.47;;;5.84;53.87
77247;BME280;66279;42.820;23.374;2023-12-20T07:33:50;95754.03;;;5.65;53.94
77247;BME280;66279;42.820;23.374;2023-12-20T07:36:15;95772.28;;;6.12;55.66
77247;BME280;66279;42.820;23.374;2023-12-20T07:38:40;95770.44;;;5.98;57.43
77247;BME280;66279;42.820;23.374;2023-12-20T07:41:09;95765.78;;;5.77;58.12
77247;BME280;66279;42.820;23.374;2023-12-20T07:43:35;95767.06;;;5.81;58.88
77247;BME280;66279;42.820;23.374;2023-12-20T07:46:05;95761.66;;;6.06;55.86
77247;BME280;66279;42.820;23.374;2023-12-20T07:48:30;95746.50;;;5.85;55.31
77247;BME280;66279;42.820;23.374;2023-12-20T07:50:55;95768.91;;;6.04;54.38
77247;BME280;66279;42.820;23.374;2023-12-20T07:53:21;95743.06;;;5.84;55.15
77247;BME280;66279;42.820;23.374;2023-12-20T07:55:46;95765.19;;;5.98;53.96
77247;BME280;66279;42.820;23.374;2023-12-20T07:58:12;95750.19;;;5.75;54.11
77247;BME280;66279;42.820;23.374;2023-12-20T08:00:37;95758.47;;;5.95;56.78
77247;BME280;66279;42.820;23.374;2023-12-20T08:03:03;95775.25;;;6.09;57.11
77247;BME280;66279;42.820;23.374;2023-12-20T08:05:28;95767.34;;;5.94;58.55
77247;BME280;66279;42.820;23.374;2023-12-20T08:07:54;95747.09;;;5.72;59.17
77247;BME280;66279;42.820;23.374;2023-12-20T08:10:19;95760.09;;;5.96;57.01
77247;BME280;66279;42.820;23.374;2023-12-20T08:12:45;95750.59;;;5.87;56.03
77247;BME280;66279;42.820;23.374;2023-12-20T08:15:10;95742.53;;;5.66;55.61
77247;BME280;66279;42.820;23.374;2023-12-20T08:17:36;95758.75;;;5.69;55.56
77247;BME280;66279;42.820;23.374;2023-12-20T08:20:01;95764.13;;;5.53;55.59
77247;BME280;66279;42.820;23.374;2023-12-20T08:22:26;95744.63;;;5.47;55.52
77247;BME280;66279;42.820;23.374;2023-12-20T08:24:52;95729.66;;;5.79;57.17
77247;BME280;66279;42.820;23.374;2023-12-20T08:27:17;95738.09;;;5.89;57.55
77247;BME280;66279;42.820;23.374;2023-12-20T08:29:46;95728.94;;;5.62;59.76
77247;BME280;66279;42.820;23.374;2023-12-20T08:32:11;95733.88;;;5.57;61.31
77247;BME280;66279;42.820;23.374;2023-12-20T08:34:36;95729.13;;;5.61;58.79
77247;BME280;66279;42.820;23.374;2023-12-20T08:37:02;95707.94;;;5.62;57.13
77247;BME280;66279;42.820;23.374;2023-12-20T08:39:27;95728.44;;;5.67;56.63
77247;BME280;66279;42.820;23.374;2023-12-20T08:41:55;95711.00;;;5.66;56.06
77247;BME280;66279;42.820;23.374;2023-12-20T08:44:21;95728.59;;;5.65;56.13
77247;BME280;66279;42.820;23.374;2023-12-20T08:46:47;95706.47;;;5.60;55.71
77247;BME280;66279;42.820;23.374;2023-12-20T08:49:13;95693.22;;;5.76;57.86
77247;BME280;66279;42.820;23.374;2023-12-20T08:51:39;95703.44;;;5.94;57.83
77247;BME280;66279;42.820;23.374;2023-12-20T08:54:06;95697.38;;;5.70;59.56
77247;BME280;66279;42.820;23.374;2023-12-20T08:56:33;95693.63;;;5.65;61.06
77247;BME280;66279;42.820;23.374;2023-12-20T08:58:59;95691.94;;;5.72;58.84
77247;BME280;66279;42.820;23.374;2023-12-20T09:01:24;95675.59;;;5.62;57.47
77247;BME280;66279;42.820;23.374;2023-12-20T09:03:49;95662.25;;;5.48;56.79
77247;BME280;66279;42.820;23.374;2023-12-20T09:06:15;95661.13;;;5.43;56.75
77247;BME280;66279;42.820;23.374;2023-12-20T09:08:41;95672.59;;;5.42;56.50
77247;BME280;66279;42.820;23.374;2023-12-20T09:11:06;95625.72;;;5.16;56.41
77247;BME280;66279;42.820;23.374;2023-12-20T09:13:32;95635.09;;;5.56;58.31
77247;BME280;66279;42.820;23.374;2023-12-20T09:15:57;95638.25;;;5.51;58.54
77247;BME280;66279;42.820;23.374;2023-12-20T09:18:23;95651.31;;;5.60;60.37
77247;BME280;66279;42.820;23.374;2023-12-20T09:20:49;95643.44;;;5.60;61.46
77247;BME280;66279;42.820;23.374;2023-12-20T09:23:15;95643.78;;;5.57;59.45
77247;BME280;66279;42.820;23.374;2023-12-20T09:25:40;95606.34;;;5.77;56.96
77247;BME280;66279;42.820;23.374;2023-12-20T09:28:06;95608.81;;;5.79;56.91
77247;BME280;66279;42.820;23.374;2023-12-20T09:30:31;95593.63;;;5.51;56.55
77247;BME280;66279;42.820;23.374;2023-12-20T09:32:57;95589.78;;;5.54;56.30
77247;BME280;66279;42.820;23.374;2023-12-20T09:35:23;95579.34;;;5.31;56.25
77247;BME280;66279;42.820;23.374;2023-12-20T09:37:49;95591.25;;;5.57;58.67
77247;BME280;66279;42.820;23.374;2023-12-20T09:40:18;95585.25;;;5.86;58.57
77247;BME280;66279;42.820;23.374;2023-12-20T09:43:03;95591.19;;;5.65;59.89
77247;BME280;66279;42.820;23.374;2023-12-20T09:45:30;95592.28;;;5.70;60.59
77247;BME280;66279;42.820;23.374;2023-12-20T09:47:57;95578.16;;;5.71;58.96
77247;BME280;66279;42.820;23.374;2023-12-20T09:50:23;95579.41;;;5.75;57.36
77247;BME280;66279;42.820;23.374;2023-12-20T09:52:50;95556.13;;;5.58;56.74
77247;BME280;66279;42.820;23.374;2023-12-20T09:55:20;95559.13;;;5.54;56.77
77247;BME280;66279;42.820;23.374;2023-12-20T09:57:47;95540.78;;;5.31;57.15
77247;BME280;66279;42.820;23.374;2023-12-20T10:00:14;95562.66;;;5.24;56.53
77247;BME280;66279;42.820;23.374;2023-12-20T10:02:45;95551.28;;;5.31;59.85
77247;BME280;66279;42.820;23.374;2023-12-20T10:05:16;95525.66;;;5.34;59.58
77247;BME280;66279;42.820;23.374;2023-12-20T10:07:44;95543.81;;;5.58;60.41
77247;BME280;66279;42.820;23.374;2023-12-20T10:10:10;95550.03;;;5.57;61.44
77247;BME280;66279;42.820;23.374;2023-12-20T10:12:37;95529.22;;;5.56;59.49
77247;BME280;66279;42.820;23.374;2023-12-20T10:15:04;95523.34;;;5.68;58.42
77247;BME280;66279;42.820;23.374;2023-12-20T10:17:29;95527.88;;;5.74;57.18
77247;BME280;66279;42.820;23.374;2023-12-20T10:19:55;95525.84;;;5.47;57.07
77247;BME280;66279;42.820;23.374;2023-12-20T10:22:21;95532.38;;;5.36;56.88
77247;BME280;66279;42.820;23.374;2023-12-20T10:24:46;95506.00;;;5.15;56.91
77247;BME280;66279;42.820;23.374;2023-12-20T10:27:12;95524.69;;;5.49;58.87
77247;BME280;66279;42.820;23.374;2023-12-20T10:29:38;95527.97;;;5.66;59.13
77247;BME280;66279;42.820;23.374;2023-12-20T10:34:52;95484.56;;;5.41;61.34
77247;BME280;66279;42.820;23.374;2023-12-20T10:37:18;95503.25;;;5.61;59.60
77247;BME280;66279;42.820;23.374;2023-12-20T10:39:43;95504.31;;;5.66;58.45
77247;BME280;66279;42.820;23.374;2023-12-20T10:42:13;95491.72;;;5.47;57.51
77247;BME280;66279;42.820;23.374;2023-12-20T10:44:39;95478.69;;;5.24;57.81
77247;BME280;66279;42.820;23.374;2023-12-20T10:47:05;95468.78;;;5.26;58.20
77247;BME280;66279;42.820;23.374;2023-12-20T10:49:34;95480.22;;;5.33;57.17
77247;BME280;66279;42.820;23.374;2023-12-20T10:52:02;95436.31;;;5.42;58.74
77247;BME280;66279;42.820;23.374;2023-12-20T10:54:29;95445.19;;;5.70;59.21
77247;BME280;66279;42.820;23.374;2023-12-20T10:56:57;95438.94;;;5.57;60.19
77247;BME280;66279;42.820;23.374;2023-12-20T10:59:23;95438.69;;;5.37;61.90
77247;BME280;66279;42.820;23.374;2023-12-20T11:01:50;95462.41;;;5.43;60.14
77247;BME280;66279;42.820;23.374;2023-12-20T11:04:20;95460.31;;;5.53;58.88
77247;BME280;66279;42.820;23.374;2023-12-20T11:09:25;95441.81;;;5.32;58.13
77247;BME280;66279;42.820;23.374;2023-12-20T11:12:04;95425.50;;;5.66;59.64
77247;BME280;66279;42.820;23.374;2023-12-20T11:14:52;95437.69;;;5.52;58.95
77247;BME280;66279;42.820;23.374;2023-12-20T11:17:18;95423.91;;;5.50;61.60
77247;BME280;66279;42.820;23.374;2023-12-20T11:22:24;95403.41;;;5.75;61.24
77247;BME280;66279;42.820;23.374;2023-12-20T11:24:51;95415.38;;;5.63;62.58
77247;BME280;66279;42.820;23.374;2023-12-20T11:27:18;95407.06;;;5.60;60.55
77247;BME280;66279;42.820;23.374;2023-12-20T11:29:51;95393.66;;;5.54;59.61
77247;BME280;66279;42.820;23.374;2023-12-20T11:34:57;95395.50;;;5.39;58.04
77247;BME280;66279;42.820;23.374;2023-12-20T11:37:32;95358.66;;;5.18;57.97
77247;BME280;66279;42.820;23.374;2023-12-20T11:40:05;95381.00;;;5.28;58.12
77247;BME280;66279;42.820;23.374;2023-12-20T11:42:43;95373.09;;;5.73;59.34
77247;BME280;66279;42.820;23.374;2023-12-20T11:45:09;95341.44;;;5.81;59.04
77247;BME280;66279;42.820;23.374;2023-12-20T11:47:35;95362.53;;;5.88;60.70
77247;BME280;66279;42.820;23.374;2023-12-20T11:50:01;95361.97;;;5.92;60.60
77247;BME280;66279;42.820;23.374;2023-12-20T11:52:29;95354.94;;;5.78;59.45
77247;BME280;66279;42.820;23.374;2023-12-20T11:54:54;95326.22;;;5.55;58.65
77247;BME280;66279;42.820;23.374;2023-12-20T11:57:20;95316.63;;;5.32;58.45
77247;BME280;66279;42.820;23.374;2023-12-20T11:59:46;95324.41;;;5.26;58.29
77247;BME280;66279;42.820;23.374;2023-12-20T12:02:12;95322.81;;;5.25;58.60
77247;BME280;66279;42.820;23.374;2023-12-20T12:04:37;95305.16;;;5.19;58.15
77247;BME280;66279;42.820;23.374;2023-12-20T12:07:04;95302.75;;;5.53;59.79
77247;BME280;66279;42.820;23.374;2023-12-20T12:09:29;95310.84;;;5.73;59.84
77247;BME280;66279;42.820;23.374;2023-12-20T12:11:55;95294.00;;;5.68;62.39
77247;BME280;66279;42.820;23.374;2023-12-20T12:14:20;95279.50;;;5.72;63.96
77247;BME280;66279;42.820;23.374;2023-12-20T12:16:46;95267.34;;;5.49;61.43
77247;BME280;66279;42.820;23.374;2023-12-20T12:19:25;95289.13;;;5.65;60.12
77247;BME280;66279;42.820;23.374;2023-12-20T12:22:03;95309.91;;;5.45;59.71
77247;BME280;66279;42.820;23.374;2023-12-20T12:24:30;95298.44;;;5.46;59.09
77247;BME280;66279;42.820;23.374;2023-12-20T12:26:57;95281.53;;;5.19;58.87
77247;BME280;66279;42.820;23.374;2023-12-20T12:29:22;95281.09;;;5.15;58.83
77247;BME280;66279;42.820;23.374;2023-12-20T12:31:50;95298.56;;;5.59;60.41
77247;BME280;66279;42.820;23.374;2023-12-20T12:34:15;95297.25;;;6.06;59.68
77247;BME280;66279;42.820;23.374;2023-12-20T12:36:41;95293.03;;;5.90;60.93
77247;BME280;66279;42.820;23.374;2023-12-20T12:39:06;95294.56;;;5.85;61.68
77247;BME280;66279;42.820;23.374;2023-12-20T12:41:32;95282.03;;;5.44;60.43
77247;BME280;66279;42.820;23.374;2023-12-20T12:43:57;95294.53;;;5.42;60.12
77247;BME280;66279;42.820;23.374;2023-12-20T12:46:23;95295.59;;;5.47;59.37
77247;BME280;66279;42.820;23.374;2023-12-20T12:48:49;95262.00;;;5.21;58.66
77247;BME280;66279;42.820;23.374;2023-12-20T12:51:15;95283.22;;;5.26;58.54
77247;BME280;66279;42.820;23.374;2023-12-20T12:53:41;95272.28;;;5.23;58.67
77247;BME280;66279;42.820;23.374;2023-12-20T12:56:07;95278.25;;;5.68;59.88
77247;BME280;66279;42.820;23.374;2023-12-20T12:58:33;95270.06;;;5.77;59.91
77247;BME280;66279;42.820;23.374;2023-12-20T13:00:58;95272.56;;;5.64;61.65
77247;BME280;66279;42.820;23.374;2023-12-20T13:03:24;95253.41;;;5.49;62.85
77247;BME280;66279;42.820;23.374;2023-12-20T13:05:50;95270.03;;;5.56;60.84
77247;BME280;66279;42.820;23.374;2023-12-20T13:08:15;95264.34;;;5.52;59.18
77247;BME280;66279;42.820;23.374;2023-12-20T13:10:40;95245.22;;;5.37;59.71
77247;BME280;66279;42.820;23.374;2023-12-20T13:13:06;95238.16;;;5.59;61.74
77247;BME280;66279;42.820;23.374;2023-12-20T13:15:31;95255.34;;;5.40;60.47
77247;BME280;66279;42.820;23.374;2023-12-20T13:17:57;95261.31;;;5.34;59.79
77247;BME280;66279;42.820;23.374;2023-12-20T13:20:22;95249.78;;;5.50;61.84
77247;BME280;66279;42.820;23.374;2023-12-20T13:22:48;95263.31;;;5.90;60.88
77247;BME280;66279;42.820;23.374;2023-12-20T13:25:13;95260.81;;;5.82;62.04
77247;BME280;66279;42.820;23.374;2023-12-20T13:27:38;95260.63;;;5.83;62.91
77247;BME280;66279;42.820;23.374;2023-12-20T13:30:05;95241.47;;;5.68;61.31
77247;BME280;66279;42.820;23.374;2023-12-20T13:32:30;95249.75;;;5.65;60.53